sensor_id;sensor_type;location;lat;lon;timestamp;pressure;altitude;pressure_sealevel;temperature;humidity
21838;BME280;11081;45.946;6.140;2022-08-19T00:01:59;94904.44;;;19.90;93.29
21838;BME280;11081;45.946;6.140;2022-08-19T00:04:29;94900.13;;;19.94;93.05
21838;BME280;11081;45.946;6.140;2022-08-19T00:06:58;94896.56;;;20.04;92.45
21838;BME280;11081;45.946;6.140;2022-08-19T00:09:27;94897.22;;;20.15;91.76
21838;BME280;11081;45.946;6.140;2022-08-19T00:11:57;94899.78;;;20.20;91.40
21838;BME280;11081;45.946;6.140;2022-08-19T00:14:26;94890.00;;;20.20;91.26
21838;BME280;11081;45.946;6.140;2022-08-19T00:16:56;94897.66;;;20.22;91.24
21838;BME280;11081;45.946;6.140;2022-08-19T00:19:25;94890.78;;;20.21;91.28
21838;BME280;11081;45.946;6.140;2022-08-19T00:21:53;94887.59;;;20.19;91.66
21838;BME280;11081;45.946;6.140;2022-08-19T00:24:23;94886.03;;;20.18;91.94
21838;BME280;11081;45.946;6.140;2022-08-19T00:26:51;94884.47;;;20.17;92.27
21838;BME280;11081;45.946;6.140;2022-08-19T00:29:22;94887.69;;;20.14;92.84
21838;BME280;11081;45.946;6.140;2022-08-19T00:31:51;94894.06;;;20.13;92.73
21838;BME280;11081;45.946;6.140;2022-08-19T00:34:23;94895.63;;;20.14;92.42
21838;BME280;11081;45.946;6.140;2022-08-19T00:36:54;94888.69;;;20.18;92.27
21838;BME280;11081;45.946;6.140;2022-08-19T00:39:22;94895.31;;;20.20;91.98
21838;BME280;11081;45.946;6.140;2022-08-19T00:41:51;94888.19;;;20.16;92.22
21838;BME280;11081;45.946;6.140;2022-08-19T00:44:24;94885.63;;;20.10;92.51
21838;BME280;11081;45.946;6.140;2022-08-19T00:46:54;94891.19;;;19.90;93.05
21838;BME280;11081;45.946;6.140;2022-08-19T00:49:27;94885.25;;;19.79;93.36
21838;BME280;11081;45.946;6.140;2022-08-19T00:52:01;94879.28;;;19.69;94.20
21838;BME280;11081;45.946;6.140;2022-08-19T00:54:29;94881.00;;;19.60;94.68
21838;BME280;11081;45.946;6.140;2022-08-19T00:57:01;94874.19;;;19.48;95.20
21838;BME280;11081;45.946;6.140;2022-08-19T00:59:31;94886.84;;;19.57;94.43
21838;BME280;11081;45.946;6.140;2022-08-19T01:02:23;94890.75;;;19.35;95.06
21838;BME280;11081;45.946;6.140;2022-08-19T01:04:51;94897.69;;;19.31;95.04
21838;BME280;11081;45.946;6.140;2022-08-19T01:07:20;94890.75;;;19.35;94.61
21838;BME280;11081;45.946;6.140;2022-08-19T01:09:49;94888.50;;;19.47;93.80
21838;BME280;11081;45.946;6.140;2022-08-19T01:12:18;94890.44;;;19.66;92.77
21838;BME280;11081;45.946;6.140;2022-08-19T01:14:47;94893.44;;;19.78;92.02
21838;BME280;11081;45.946;6.140;2022-08-19T01:17:17;94889.19;;;19.82;91.89
21838;BME280;11081;45.946;6.140;2022-08-19T01:19:46;94893.03;;;19.71;92.67
21838;BME280;11081;45.946;6.140;2022-08-19T01:22:25;94887.16;;;19.74;93.04
21838;BME280;11081;45.946;6.140;2022-08-19T01:24:59;94874.66;;;19.79;92.69
21838;BME280;11081;45.946;6.140;2022-08-19T01:27:37;94883.31;;;19.85;92.17
21838;BME280;11081;45.946;6.140;2022-08-19T01:30:12;94879.44;;;19.96;92.46
21838;BME280;11081;45.946;6.140;2022-08-19T01:32:40;94876.75;;;20.01;93.04
21838;BME280;11081;45.946;6.140;2022-08-19T01:35:11;94883.63;;;20.02;93.15
21838;BME280;11081;45.946;6.140;2022-08-19T01:37:48;94891.84;;;20.01;93.41
21838;BME280;11081;45.946;6.140;2022-08-19T01:40:17;94891.06;;;20.00;93.33
21838;BME280;11081;45.946;6.140;2022-08-19T01:42:47;94892.16;;;19.99;93.18
21838;BME280;11081;45.946;6.140;2022-08-19T01:45:16;94895.59;;;20.00;93.01
21838;BME280;11081;45.946;6.140;2022-08-19T01:47:44;94883.38;;;19.99;92.92
21838;BME280;11081;45.946;6.140;2022-08-19T01:50:29;94891.63;;;19.97;93.32
21838;BME280;11081;45.946;6.140;2022-08-19T01:52:59;94895.34;;;19.96;92.86
21838;BME280;11081;45.946;6.140;2022-08-19T01:55:33;94890.19;;;19.86;93.45
21838;BME280;11081;45.946;6.140;2022-08-19T01:58:08;94893.34;;;19.88;93.58
21838;BME280;11081;45.946;6.140;2022-08-19T02:00:38;94896.75;;;19.70;94.02
21838;BME280;11081;45.946;6.140;2022-08-19T02:03:07;94900.56;;;19.35;96.44
21838;BME280;11081;45.946;6.140;2022-08-19T02:05:37;94902.47;;;19.29;95.98
21838;BME280;11081;45.946;6.140;2022-08-19T02:08:07;94901.47;;;19.25;95.87
21838;BME280;11081;45.946;6.140;2022-08-19T02:10:38;94905.75;;;19.21;96.09
21838;BME280;11081;45.946;6.140;2022-08-19T02:13:07;94910.34;;;19.34;95.61
21838;BME280;11081;45.946;6.140;2022-08-19T02:15:36;94911.13;;;19.35;95.36
21838;BME280;11081;45.946;6.140;2022-08-19T02:18:04;94902.47;;;19.29;95.34
21838;BME280;11081;45.946;6.140;2022-08-19T02:20:34;94903.59;;;19.47;94.95
21838;BME280;11081;45.946;6.140;2022-08-19T02:23:02;94903.28;;;19.54;95.01
21838;BME280;11081;45.946;6.140;2022-08-19T02:25:41;94918.06;;;19.60;94.98
21838;BME280;11081;45.946;6.140;2022-08-19T02:28:11;94916.06;;;19.46;95.84
21838;BME280;11081;45.946;6.140;2022-08-19T02:30:44;94919.72;;;19.50;95.87
21838;BME280;11081;45.946;6.140;2022-08-19T02:33:12;94924.47;;;19.54;96.06
21838;BME280;11081;45.946;6.140;2022-08-19T02:35:41;94923.91;;;19.57;96.18
21838;BME280;11081;45.946;6.140;2022-08-19T02:38:10;94928.16;;;19.53;96.15
21838;BME280;11081;45.946;6.140;2022-08-19T02:40:56;94920.47;;;19.56;95.82
21838;BME280;11081;45.946;6.140;2022-08-19T02:43:25;94925.44;;;19.63;95.96
21838;BME280;11081;45.946;6.140;2022-08-19T02:45:54;94929.09;;;19.67;95.90
21838;BME280;11081;45.946;6.140;2022-08-19T02:48:23;94919.50;;;19.71;96.25
21838;BME280;11081;45.946;6.140;2022-08-19T02:50:52;94925.03;;;19.74;96.15
21838;BME280;11081;45.946;6.140;2022-08-19T02:53:23;94934.84;;;19.74;96.31
21838;BME280;11081;45.946;6.140;2022-08-19T02:55:53;94926.38;;;19.72;96.46
21838;BME280;11081;45.946;6.140;2022-08-19T02:58:22;94929.09;;;19.67;96.39
21838;BME280;11081;45.946;6.140;2022-08-19T03:00:53;94932.91;;;19.56;96.72
21838;BME280;11081;45.946;6.140;2022-08-19T03:03:22;94930.31;;;19.50;96.65
21838;BME280;11081;45.946;6.140;2022-08-19T03:05:51;94926.03;;;19.55;96.64
21838;BME280;11081;45.946;6.140;2022-08-19T03:08:23;94939.53;;;19.53;96.73
21838;BME280;11081;45.946;6.140;2022-08-19T03:10:53;94930.88;;;19.47;96.79
21838;BME280;11081;45.946;6.140;2022-08-19T03:13:21;94932.22;;;19.45;96.92
21838;BME280;11081;45.946;6.140;2022-08-19T03:15:50;94931.44;;;19.44;97.16
21838;BME280;11081;45.946;6.140;2022-08-19T03:18:18;94939.38;;;19.44;97.19
21838;BME280;11081;45.946;6.140;2022-08-19T03:20:51;94941.63;;;19.32;97.60
21838;BME280;11081;45.946;6.140;2022-08-19T03:23:22;94940.28;;;19.06;99.62
21838;BME280;11081;45.946;6.140;2022-08-19T03:25:51;94949.84;;;19.02;100.00
21838;BME280;11081;45.946;6.140;2022-08-19T03:28:41;94957.66;;;19.17;99.55
21838;BME280;11081;45.946;6.140;2022-08-19T03:31:25;94950.22;;;19.19;98.24
21838;BME280;11081;45.946;6.140;2022-08-19T03:34:15;94951.75;;;19.25;98.31
21838;BME280;11081;45.946;6.140;2022-08-19T03:36:44;94953.84;;;19.28;97.99
21838;BME280;11081;45.946;6.140;2022-08-19T03:39:13;94944.25;;;19.32;97.19
21838;BME280;11081;45.946;6.140;2022-08-19T03:41:43;94952.16;;;19.37;97.63
21838;BME280;11081;45.946;6.140;2022-08-19T03:44:21;94956.97;;;19.30;97.74
21838;BME280;11081;45.946;6.140;2022-08-19T03:46:51;94956.41;;;19.33;97.06
21838;BME280;11081;45.946;6.140;2022-08-19T03:49:21;94948.16;;;19.11;97.88
21838;BME280;11081;45.946;6.140;2022-08-19T03:51:55;94954.91;;;18.98;98.91
21838;BME280;11081;45.946;6.140;2022-08-19T03:54:25;94961.66;;;18.80;99.71
21838;BME280;11081;45.946;6.140;2022-08-19T03:56:55;94964.38;;;18.70;100.00
21838;BME280;11081;45.946;6.140;2022-08-19T03:59:27;94967.56;;;18.67;100.00
21838;BME280;11081;45.946;6.140;2022-08-19T04:01:59;94970.22;;;18.67;100.00
21838;BME280;11081;45.946;6.140;2022-08-19T04:04:27;94972.81;;;18.72;100.00
21838;BME280;11081;45.946;6.140;2022-08-19T04:06:57;94975.97;;;18.79;100.00
21838;BME280;11081;45.946;6.140;2022-08-19T04:09:25;94971.19;;;18.81;100.00
21838;BME280;11081;45.946;6.140;2022-08-19T04:11:56;94970.72;;;18.74;100.00
21838;BME280;11081;45.946;6.140;2022-08-19T04:14:27;94966.91;;;18.85;100.00
21838;BME280;11081;45.946;6.140;2022-08-19T04:16:57;94976.47;;;18.81;100.00
21838;BME280;11081;45.946;6.140;2022-08-19T04:19:26;94970.22;;;18.67;100.00
21838;BME280;11081;45.946;6.140;2022-08-19T04:21:57;94973.69;;;18.63;100.00
21838;BME280;11081;45.946;6.140;2022-08-19T04:24:25;94981.88;;;18.61;100.00
21838;BME280;11081;45.946;6.140;2022-08-19T04:26:53;94983.94;;;18.69;100.00
21838;BME280;11081;45.946;6.140;2022-08-19T04:29:23;94988.22;;;18.65;100.00
21838;BME280;11081;45.946;6.140;2022-08-19T04:31:56;94996.16;;;18.60;100.00
21838;BME280;11081;45.946;6.140;2022-08-19T04:34:27;94989.78;;;18.66;100.00
21838;BME280;11081;45.946;6.140;2022-08-19T04:36:57;94993.50;;;18.65;100.00
21838;BME280;11081;45.946;6.140;2022-08-19T04:39:28;95004.56;;;18.72;100.00
21838;BME280;11081;45.946;6.140;2022-08-19T04:42:10;94996.28;;;18.84;100.00
21838;BME280;11081;45.946;6.140;2022-08-19T04:44:56;95012.31;;;18.98;100.00
21838;BME280;11081;45.946;6.140;2022-08-19T04:47:27;95014.88;;;19.08;100.00
21838;BME280;11081;45.946;6.140;2022-08-19T04:50:15;95018.34;;;19.03;100.00
21838;BME280;11081;45.946;6.140;2022-08-19T04:52:44;95018.06;;;19.05;100.00
21838;BME280;11081;45.946;6.140;2022-08-19T04:55:12;95024.94;;;19.06;100.00
21838;BME280;11081;45.946;6.140;2022-08-19T04:57:41;95022.97;;;18.87;100.00
21838;BME280;11081;45.946;6.140;2022-08-19T05:00:10;95025.09;;;18.85;100.00
21838;BME280;11081;45.946;6.140;2022-08-19T05:02:39;95028.72;;;18.95;100.00
21838;BME280;11081;45.946;6.140;2022-08-19T05:05:07;95025.50;;;19.03;100.00
21838;BME280;11081;45.946;6.140;2022-08-19T05:07:36;95028.66;;;19.05;100.00
21838;BME280;11081;45.946;6.140;2022-08-19T05:10:05;95038.13;;;19.11;100.00
21838;BME280;11081;45.946;6.140;2022-08-19T05:12:33;95038.38;;;19.14;100.00
21838;BME280;11081;45.946;6.140;2022-08-19T05:15:03;95045.00;;;19.12;100.00
21838;BME280;11081;45.946;6.140;2022-08-19T05:17:32;95054.66;;;18.93;100.00
21838;BME280;11081;45.946;6.140;2022-08-19T05:20:07;95053.22;;;18.76;100.00
21838;BME280;11081;45.946;6.140;2022-08-19T05:22:53;95054.78;;;18.77;100.00
21838;BME280;11081;45.946;6.140;2022-08-19T05:25:22;95055.81;;;18.81;100.00
21838;BME280;11081;45.946;6.140;2022-08-19T05:27:51;95059.00;;;18.73;100.00
21838;BME280;11081;45.946;6.140;2022-08-19T05:30:20;95063.81;;;18.66;100.00
21838;BME280;11081;45.946;6.140;2022-08-19T05:33:07;95064.38;;;18.58;100.00
21838;BME280;11081;45.946;6.140;2022-08-19T05:35:38;95052.22;;;18.52;100.00
21838;BME280;11081;45.946;6.140;2022-08-19T05:38:07;95054.88;;;18.57;100.00
21838;BME280;11081;45.946;6.140;2022-08-19T05:40:35;95057.47;;;18.62;100.00
21838;BME280;11081;45.946;6.140;2022-08-19T05:43:05;95061.66;;;18.78;100.00
21838;BME280;11081;45.946;6.140;2022-08-19T05:45:38;95065.38;;;18.77;99.96
21838;BME280;11081;45.946;6.140;2022-08-19T05:48:06;95069.94;;;18.56;100.00
21838;BME280;11081;45.946;6.140;2022-08-19T05:50:40;95071.31;;;18.44;100.00
21838;BME280;11081;45.946;6.140;2022-08-19T05:53:08;95077.69;;;18.38;100.00
21838;BME280;11081;45.946;6.140;2022-08-19T05:55:36;95081.41;;;18.37;100.00
21838;BME280;11081;45.946;6.140;2022-08-19T05:58:06;95087.28;;;18.18;100.00
21838;BME280;11081;45.946;6.140;2022-08-19T06:00:35;95090.97;;;18.22;100.00
21838;BME280;11081;45.946;6.140;2022-08-19T06:03:03;95087.75;;;18.31;100.00
21838;BME280;11081;45.946;6.140;2022-08-19T06:05:39;95094.63;;;18.26;100.00
21838;BME280;11081;45.946;6.140;2022-08-19T06:08:19;95101.53;;;18.22;100.00
21838;BME280;11081;45.946;6.140;2022-08-19T06:11:15;95098.91;;;18.17;100.00
21838;BME280;11081;45.946;6.140;2022-08-19T06:13:45;95105.78;;;18.08;100.00
21838;BME280;11081;45.946;6.140;2022-08-19T06:16:17;95110.53;;;18.11;100.00
21838;BME280;11081;45.946;6.140;2022-08-19T06:18:50;95105.25;;;18.16;100.00
21838;BME280;11081;45.946;6.140;2022-08-19T06:21:21;95108.44;;;18.13;100.00
21838;BME280;11081;45.946;6.140;2022-08-19T06:23:50;95123.22;;;18.19;100.00
21838;BME280;11081;45.946;6.140;2022-08-19T06:26:20;95118.47;;;18.16;100.00
21838;BME280;11081;45.946;6.140;2022-08-19T06:28:48;95127.16;;;18.22;100.00
21838;BME280;11081;45.946;6.140;2022-08-19T06:31:18;95133.22;;;18.27;100.00
21838;BME280;11081;45.946;6.140;2022-08-19T06:33:47;95136.38;;;18.35;100.00
21838;BME280;11081;45.946;6.140;2022-08-19T06:36:17;95132.94;;;18.29;100.00
21838;BME280;11081;45.946;6.140;2022-08-19T06:38:52;95142.19;;;18.32;100.00
21838;BME280;11081;45.946;6.140;2022-08-19T06:41:20;95136.88;;;18.42;100.00
21838;BME280;11081;45.946;6.140;2022-08-19T06:43:48;95141.63;;;18.45;100.00
21838;BME280;11081;45.946;6.140;2022-08-19T06:46:19;95142.09;;;18.52;100.00
21838;BME280;11081;45.946;6.140;2022-08-19T06:48:48;95146.34;;;18.58;100.00
21838;BME280;11081;45.946;6.140;2022-08-19T06:51:17;95151.09;;;18.56;100.00
21838;BME280;11081;45.946;6.140;2022-08-19T06:53:48;95157.19;;;18.51;100.00
21838;BME280;11081;45.946;6.140;2022-08-19T06:56:20;95155.34;;;18.47;100.00
21838;BME280;11081;45.946;6.140;2022-08-19T06:58:48;95159.31;;;18.54;100.00
21838;BME280;11081;45.946;6.140;2022-08-19T07:01:19;95154.53;;;18.56;100.00
21838;BME280;11081;45.946;6.140;2022-08-19T07:03:47;95157.72;;;18.48;100.00
21838;BME280;11081;45.946;6.140;2022-08-19T07:06:17;95156.16;;;18.47;100.00
21838;BME280;11081;45.946;6.140;2022-08-19T07:09:08;95154.25;;;18.53;100.00
21838;BME280;11081;45.946;6.140;2022-08-19T07:11:43;95161.19;;;18.44;100.00
21838;BME280;11081;45.946;6.140;2022-08-19T07:14:12;95158.50;;;18.49;100.00
21838;BME280;11081;45.946;6.140;2022-08-19T07:16:46;95169.34;;;18.63;100.00
21838;BME280;11081;45.946;6.140;2022-08-19T07:19:15;95163.75;;;18.69;100.00
21838;BME280;11081;45.946;6.140;2022-08-19T07:21:47;95184.91;;;18.69;100.00
21838;BME280;11081;45.946;6.140;2022-08-19T07:24:17;95187.03;;;18.67;100.00
21838;BME280;11081;45.946;6.140;2022-08-19T07:26:46;95184.94;;;18.64;100.00
21838;BME280;11081;45.946;6.140;2022-08-19T07:29:18;95181.47;;;18.69;100.00
21838;BME280;11081;45.946;6.140;2022-08-19T07:31:52;95184.66;;;18.66;100.00
21838;BME280;11081;45.946;6.140;2022-08-19T07:34:26;95184.38;;;18.72;100.00
21838;BME280;11081;45.946;6.140;2022-08-19T07:36:55;95184.88;;;18.79;100.00
21838;BME280;11081;45.946;6.140;2022-08-19T07:39:27;95179.03;;;18.87;100.00
21838;BME280;11081;45.946;6.140;2022-08-19T07:41:59;95184.03;;;18.89;100.00
21838;BME280;11081;45.946;6.140;2022-08-19T07:44:27;95192.22;;;18.93;100.00
21838;BME280;11081;45.946;6.140;2022-08-19T07:46:56;95188.53;;;18.88;100.00
21838;BME280;11081;45.946;6.140;2022-08-19T07:49:27;95194.38;;;18.85;100.00
21838;BME280;11081;45.946;6.140;2022-08-19T07:52:00;95187.44;;;18.95;100.00
21838;BME280;11081;45.946;6.140;2022-08-19T07:54:31;95191.59;;;19.11;100.00
21838;BME280;11081;45.946;6.140;2022-08-19T07:57:03;95187.84;;;19.22;100.00
21838;BME280;11081;45.946;6.140;2022-08-19T07:59:32;95189.94;;;19.25;100.00
21838;BME280;11081;45.946;6.140;2022-08-19T08:02:01;95189.69;;;19.22;100.00
21838;BME280;11081;45.946;6.140;2022-08-19T08:04:30;95194.72;;;19.23;100.00
21838;BME280;11081;45.946;6.140;2022-08-19T08:07:16;95197.03;;;19.35;100.00
21838;BME280;11081;45.946;6.140;2022-08-19T08:10:03;95190.84;;;19.49;100.00
21838;BME280;11081;45.946;6.140;2022-08-19T08:12:40;95192.41;;;19.56;100.00
21838;BME280;11081;45.946;6.140;2022-08-19T08:15:24;95194.00;;;19.57;100.00
21838;BME280;11081;45.946;6.140;2022-08-19T08:17:54;95192.44;;;19.50;99.32
21838;BME280;11081;45.946;6.140;2022-08-19T08:20:24;95194.59;;;19.43;99.44
21838;BME280;11081;45.946;6.140;2022-08-19T08:22:52;95198.78;;;19.49;99.36
21838;BME280;11081;45.946;6.140;2022-08-19T08:25:37;95206.19;;;19.53;99.75
21838;BME280;11081;45.946;6.140;2022-08-19T08:28:07;95206.78;;;19.44;98.80
21838;BME280;11081;45.946;6.140;2022-08-19T08:30:37;95211.09;;;19.30;99.18
21838;BME280;11081;45.946;6.140;2022-08-19T08:33:11;95206.88;;;19.24;98.92
21838;BME280;11081;45.946;6.140;2022-08-19T08:35:40;95201.00;;;19.37;99.54
21838;BME280;11081;45.946;6.140;2022-08-19T08:38:09;95215.78;;;19.43;98.64
21838;BME280;11081;45.946;6.140;2022-08-19T08:40:42;95212.63;;;19.41;98.14
21838;BME280;11081;45.946;6.140;2022-08-19T08:43:21;95233.72;;;19.52;97.37
21838;BME280;11081;45.946;6.140;2022-08-19T08:45:56;95217.81;;;19.62;96.93
21838;BME280;11081;45.946;6.140;2022-08-19T08:48:35;95227.94;;;19.44;95.85
21838;BME280;11081;45.946;6.140;2022-08-19T08:51:09;95227.94;;;19.44;96.51
21838;BME280;11081;45.946;6.140;2022-08-19T08:53:47;95227.13;;;19.54;96.34
21838;BME280;11081;45.946;6.140;2022-08-19T08:56:22;95231.00;;;19.67;95.24
21838;BME280;11081;45.946;6.140;2022-08-19T08:58:57;95235.84;;;19.60;95.76
21838;BME280;11081;45.946;6.140;2022-08-19T09:01:26;95237.41;;;19.61;96.31
21838;BME280;11081;45.946;6.140;2022-08-19T09:03:56;95237.66;;;19.64;95.88
21838;BME280;11081;45.946;6.140;2022-08-19T09:06:36;95242.63;;;19.71;96.19
21838;BME280;11081;45.946;6.140;2022-08-19T09:09:14;95239.41;;;19.79;96.36
21838;BME280;11081;45.946;6.140;2022-08-19T09:11:55;95239.41;;;19.79;97.04
21838;BME280;11081;45.946;6.140;2022-08-19T09:14:34;95238.38;;;19.75;96.08
21838;BME280;11081;45.946;6.140;2022-08-19T09:17:22;95240.72;;;19.76;95.98
21838;BME280;11081;45.946;6.140;2022-08-19T09:19:59;95231.97;;;19.81;96.69
21838;BME280;11081;45.946;6.140;2022-08-19T09:22:35;95242.31;;;19.77;96.19
21838;BME280;11081;45.946;6.140;2022-08-19T09:25:04;95249.28;;;19.68;96.04
21838;BME280;11081;45.946;6.140;2022-08-19T09:27:33;95244.28;;;19.62;96.45
21838;BME280;11081;45.946;6.140;2022-08-19T09:30:14;95252.19;;;19.67;96.17
21838;BME280;11081;45.946;6.140;2022-08-19T09:32:43;95254.84;;;19.67;96.83
21838;BME280;11081;45.946;6.140;2022-08-19T09:35:13;95256.91;;;19.80;97.23
21838;BME280;11081;45.946;6.140;2022-08-19T09:37:42;95253.44;;;19.79;96.85
21838;BME280;11081;45.946;6.140;2022-08-19T09:40:11;95257.97;;;19.79;97.13
21838;BME280;11081;45.946;6.140;2022-08-19T09:42:41;95260.09;;;19.72;97.62
21838;BME280;11081;45.946;6.140;2022-08-19T09:45:19;95252.13;;;19.77;97.99
21838;BME280;11081;45.946;6.140;2022-08-19T09:47:50;95257.91;;;19.84;98.01
21838;BME280;11081;45.946;6.140;2022-08-19T09:50:21;95265.91;;;19.74;97.43
21838;BME280;11081;45.946;6.140;2022-08-19T09:52:50;95271.44;;;19.77;96.30
21838;BME280;11081;45.946;6.140;2022-08-19T09:55:24;95271.13;;;19.89;95.17
21838;BME280;11081;45.946;6.140;2022-08-19T09:58:01;95274.69;;;20.08;93.63
21838;BME280;11081;45.946;6.140;2022-08-19T10:00:30;95271.59;;;20.30;93.98
21838;BME280;11081;45.946;6.140;2022-08-19T10:02:59;95272.22;;;20.51;93.43
21838;BME280;11081;45.946;6.140;2022-08-19T10:05:29;95265.97;;;20.42;92.77
21838;BME280;11081;45.946;6.140;2022-08-19T10:08:16;95270.88;;;20.20;93.89
21838;BME280;11081;45.946;6.140;2022-08-19T10:10:46;95276.09;;;20.30;93.07
21838;BME280;11081;45.946;6.140;2022-08-19T10:13:17;95271.31;;;20.32;92.24
21838;BME280;11081;45.946;6.140;2022-08-19T10:15:50;95269.41;;;20.37;90.73
21838;BME280;11081;45.946;6.140;2022-08-19T10:18:20;95266.28;;;20.64;88.66
21838;BME280;11081;45.946;6.140;2022-08-19T10:20:50;95262.66;;;20.79;90.23
21838;BME280;11081;45.946;6.140;2022-08-19T10:23:20;95264.00;;;20.77;89.04
21838;BME280;11081;45.946;6.140;2022-08-19T10:25:48;95266.38;;;20.78;88.26
21838;BME280;11081;45.946;6.140;2022-08-19T10:28:17;95274.19;;;20.69;88.01
21838;BME280;11081;45.946;6.140;2022-08-19T10:30:46;95268.44;;;20.62;87.76
21838;BME280;11081;45.946;6.140;2022-08-19T10:33:16;95278.47;;;20.65;87.48
21838;BME280;11081;45.946;6.140;2022-08-19T10:36:07;95270.81;;;20.88;88.05
21838;BME280;11081;45.946;6.140;2022-08-19T10:38:37;95275.09;;;20.84;86.64
21838;BME280;11081;45.946;6.140;2022-08-19T10:41:21;95275.59;;;20.86;85.85
21838;BME280;11081;45.946;6.140;2022-08-19T10:43:51;95282.88;;;20.99;86.07
21838;BME280;11081;45.946;6.140;2022-08-19T10:46:22;95285.03;;;20.97;84.76
21838;BME280;11081;45.946;6.140;2022-08-19T10:48:52;95282.44;;;20.92;85.52
21838;BME280;11081;45.946;6.140;2022-08-19T10:51:21;95285.16;;;20.87;85.49
21838;BME280;11081;45.946;6.140;2022-08-19T10:54:15;95291.56;;;20.81;85.16
21838;BME280;11081;45.946;6.140;2022-08-19T10:56:59;95296.88;;;20.81;84.61
21838;BME280;11081;45.946;6.140;2022-08-19T10:59:26;95288.75;;;20.96;83.77
21838;BME280;11081;45.946;6.140;2022-08-19T11:02:03;95284.97;;;21.02;83.52
21838;BME280;11081;45.946;6.140;2022-08-19T11:04:33;95286.03;;;21.01;82.37
21838;BME280;11081;45.946;6.140;2022-08-19T11:07:01;95294.63;;;20.93;81.02
21838;BME280;11081;45.946;6.140;2022-08-19T11:09:30;95287.63;;;21.02;80.97
21838;BME280;11081;45.946;6.140;2022-08-19T11:12:00;95285.38;;;21.14;79.67
21838;BME280;11081;45.946;6.140;2022-08-19T11:14:31;95287.88;;;21.29;80.07
21838;BME280;11081;45.946;6.140;2022-08-19T11:17:00;95286.03;;;21.49;79.60
21838;BME280;11081;45.946;6.140;2022-08-19T11:19:29;95287.03;;;21.53;78.71
21838;BME280;11081;45.946;6.140;2022-08-19T11:21:58;95281.03;;;21.66;78.76
21838;BME280;11081;45.946;6.140;2022-08-19T11:24:30;95285.59;;;21.79;77.41
21838;BME280;11081;45.946;6.140;2022-08-19T11:27:04;95289.75;;;21.85;77.44
21838;BME280;11081;45.946;6.140;2022-08-19T11:29:33;95290.78;;;21.89;76.06
21838;BME280;11081;45.946;6.140;2022-08-19T11:32:04;95283.16;;;22.02;76.05
21838;BME280;11081;45.946;6.140;2022-08-19T11:34:32;95281.88;;;22.18;74.98
21838;BME280;11081;45.946;6.140;2022-08-19T11:37:03;95282.59;;;22.05;76.71
21838;BME280;11081;45.946;6.140;2022-08-19T11:39:34;95286.91;;;22.01;76.67
21838;BME280;11081;45.946;6.140;2022-08-19T11:42:04;95284.31;;;21.96;76.33
21838;BME280;11081;45.946;6.140;2022-08-19T11:44:53;95288.94;;;22.09;76.78
21838;BME280;11081;45.946;6.140;2022-08-19T11:47:22;95280.78;;;22.00;76.48
21838;BME280;11081;45.946;6.140;2022-08-19T11:49:50;95282.25;;;21.92;75.35
21838;BME280;11081;45.946;6.140;2022-08-19T11:52:21;95283.91;;;21.88;76.15
21838;BME280;11081;45.946;6.140;2022-08-19T11:54:49;95285.59;;;21.79;77.07
21838;BME280;11081;45.946;6.140;2022-08-19T11:57:17;95286.59;;;21.83;76.90
21838;BME280;11081;45.946;6.140;2022-08-19T11:59:50;95292.94;;;21.87;77.61
21838;BME280;11081;45.946;6.140;2022-08-19T12:02:19;95288.19;;;21.84;77.77
21838;BME280;11081;45.946;6.140;2022-08-19T12:04:48;95283.25;;;21.78;78.65
21838;BME280;11081;45.946;6.140;2022-08-19T12:07:16;95291.09;;;21.69;76.74
21838;BME280;11081;45.946;6.140;2022-08-19T12:09:45;95286.19;;;21.76;75.43
21838;BME280;11081;45.946;6.140;2022-08-19T12:12:14;95287.78;;;21.77;75.51
21838;BME280;11081;45.946;6.140;2022-08-19T12:14:42;95293.50;;;21.84;76.23
21838;BME280;11081;45.946;6.140;2022-08-19T12:17:11;95292.09;;;21.73;76.66
21838;BME280;11081;45.946;6.140;2022-08-19T12:19:39;95285.03;;;21.82;77.12
21838;BME280;11081;45.946;6.140;2022-08-19T12:22:08;95289.13;;;21.94;76.96
21838;BME280;11081;45.946;6.140;2022-08-19T12:24:35;95296.31;;;21.93;76.18
21838;BME280;11081;45.946;6.140;2022-08-19T12:27:05;95299.09;;;22.02;76.45
21838;BME280;11081;45.946;6.140;2022-08-19T12:29:38;95299.28;;;21.91;76.82
21838;BME280;11081;45.946;6.140;2022-08-19T12:32:08;95297.25;;;21.83;76.43
21838;BME280;11081;45.946;6.140;2022-08-19T12:34:38;95293.78;;;22.02;76.29
21838;BME280;11081;45.946;6.140;2022-08-19T12:37:06;95297.25;;;22.21;76.10
21838;BME280;11081;45.946;6.140;2022-08-19T12:39:36;95294.75;;;22.43;76.00
21838;BME280;11081;45.946;6.140;2022-08-19T12:42:07;95286.47;;;22.45;74.93
21838;BME280;11081;45.946;6.140;2022-08-19T12:44:36;95294.41;;;22.50;74.63
21838;BME280;11081;45.946;6.140;2022-08-19T12:47:08;95295.75;;;22.47;74.14
21838;BME280;11081;45.946;6.140;2022-08-19T12:49:38;95298.16;;;22.63;73.34
21838;BME280;11081;45.946;6.140;2022-08-19T12:52:22;95298.00;;;22.73;71.48
21838;BME280;11081;45.946;6.140;2022-08-19T12:54:51;95299.13;;;22.67;69.45
21838;BME280;11081;45.946;6.140;2022-08-19T12:57:23;95299.50;;;22.46;69.95
21838;BME280;11081;45.946;6.140;2022-08-19T12:59:59;95293.59;;;22.49;70.32
21838;BME280;11081;45.946;6.140;2022-08-19T13:02:30;95298.50;;;22.42;70.11
21838;BME280;11081;45.946;6.140;2022-08-19T13:05:07;95299.09;;;22.39;70.79
21838;BME280;11081;45.946;6.140;2022-08-19T13:07:38;95299.09;;;22.39;70.78
21838;BME280;11081;45.946;6.140;2022-08-19T13:10:07;95298.00;;;22.40;70.38
21838;BME280;11081;45.946;6.140;2022-08-19T13:12:37;95296.34;;;22.44;70.65
21838;BME280;11081;45.946;6.140;2022-08-19T13:15:08;95301.25;;;22.37;69.02
21838;BME280;11081;45.946;6.140;2022-08-19T13:17:37;95301.44;;;22.41;69.68
21838;BME280;11081;45.946;6.140;2022-08-19T13:20:08;95300.72;;;22.54;69.30
21838;BME280;11081;45.946;6.140;2022-08-19T13:22:37;95308.41;;;22.56;69.62